»·PEaware :: DAL351 KSFO-KLAX

DAL351 :: KSFO-KLAX

FLIGHT INFORMATION

Flight Status: Arrived
Operator:
Delta Air Lines
More flights by this operator :: More flights under this callsign
Pilot: Alfredo R. (12181)
Aircraft: BOEING 737-800
(B738)
More flights by this aircraft type
Origin: KSFO San Francisco Intl
United States
Destination: KLAX Los Angeles Intl
United States
More flights between these airports :: More routes between these airports
Route: SSTIK4 EBAYE BURGL IRNMN2
File this flight plan on PilotEdge
Remarks:
Altitude:
(Current/Filed)
390ft
Speed:
(Current/Filed)
425kts
Departed: 25-May-20 06:05 PM
Arrived: 25-May-20 07:06 PM
Distance/Time
Traveled:
293nm/1:01
Distance/Time
To Go:
Arrived

Flight Plot

Page will automatically refresh every two minutes.

Flight plan parsing failed; only flown route is shown


Map Options




Map Legend


Flown Route
Filed Route
Departure Airport
Arrival Airport
Navaid (VOR, NDB)
Fix

Horizontal Profiles

Position Reports

Time Latitude Longitude Heading Altitude Ground
Speed
25-May-20 17:25 37.615537 -122.382666 224 30ft 0kts
25-May-20 17:26 37.615537 -122.382666 224 30ft 0kts
25-May-20 17:27 37.615537 -122.382666 224 30ft 0kts
25-May-20 17:28 37.615537 -122.382666 224 30ft 0kts
25-May-20 17:29 37.615537 -122.382666 224 30ft 0kts
25-May-20 17:30 37.615537 -122.382666 224 30ft 0kts
25-May-20 17:31 37.615537 -122.382666 224 30ft 0kts
25-May-20 17:32 37.615537 -122.382666 224 30ft 0kts
25-May-20 17:33 37.615537 -122.382666 224 30ft 0kts
25-May-20 17:34 37.615537 -122.382666 224 30ft 0kts
25-May-20 17:35 37.615537 -122.382666 224 30ft 0kts
25-May-20 17:36 37.615537 -122.382666 224 30ft 0kts
25-May-20 17:37 37.615537 -122.382666 224 30ft 0kts
25-May-20 17:38 37.615537 -122.382666 224 30ft 0kts
25-May-20 17:39 37.615537 -122.382666 224 30ft 0kts
25-May-20 17:40 37.615537 -122.382666 224 30ft 0kts
25-May-20 17:41 37.615537 -122.382666 224 30ft 0kts
25-May-20 17:42 37.615537 -122.382666 224 30ft 0kts
25-May-20 17:43 37.615537 -122.382666 224 30ft 0kts
25-May-20 17:44 37.615537 -122.382666 224 30ft 0kts
25-May-20 17:45 37.615537 -122.382666 224 30ft 0kts
25-May-20 17:46 37.615537 -122.382666 224 30ft 0kts
25-May-20 17:47 37.615537 -122.382666 224 30ft 0kts
25-May-20 17:48 37.615537 -122.382666 224 30ft 0kts
25-May-20 17:49 37.615537 -122.382666 224 30ft 0kts
25-May-20 17:50 37.615537 -122.382666 224 30ft 0kts
25-May-20 17:51 37.615537 -122.382666 224 31ft 0kts
25-May-20 17:52 37.615537 -122.382666 224 31ft 0kts
25-May-20 17:53 37.615994 -122.382385 142 31ft 2kts
25-May-20 17:54 37.616196 -122.382822 119 31ft 3kts
25-May-20 17:55 37.615520 -122.381245 115 31ft 1kts
25-May-20 17:56 37.615505 -122.381202 115 31ft 0kts
25-May-20 17:57 37.615505 -122.381202 115 31ft 0kts
25-May-20 17:58 37.615502 -122.381194 115 31ft 0kts
25-May-20 17:59 37.614771 -122.380870 205 30ft 8kts
25-May-20 18:00 37.611493 -122.383047 208 30ft 14kts
25-May-20 18:01 37.608575 -122.384111 117 30ft 8kts
25-May-20 18:03 37.608451 -122.383812 117 30ft 0kts
25-May-20 18:04 37.608562 -122.382500 30 29ft 8kts
25-May-20 18:05 37.628020 -122.369681 22 266ft 162kts
25-May-20 18:06 37.670123 -122.377428 285 2044ft 209kts
25-May-20 18:07 37.623019 -122.426928 198 4749ft 273kts
25-May-20 18:08 37.547064 -122.453598 197 8390ft 292kts
25-May-20 18:09 37.464302 -122.439163 145 11123ft 336kts
25-May-20 18:10 37.399430 -122.351579 132 14553ft 354kts
25-May-20 18:11 37.329901 -122.257061 133 17942ft 373kts
25-May-20 18:12 37.257778 -122.159485 133 21054ft 389kts
25-May-20 18:13 37.182729 -122.058270 133 23865ft 403kts
25-May-20 18:14 37.104774 -121.953472 133 26400ft 418kts
25-May-20 18:15 37.022913 -121.843783 133 28720ft 432kts
25-May-20 18:16 36.938923 -121.731622 133 30796ft 446kts
25-May-20 18:17 36.853584 -121.618045 133 33159ft 446kts
25-May-20 18:18 36.769514 -121.506543 133 35313ft 441kts
25-May-20 18:19 36.683336 -121.392646 133 37155ft 438kts
25-May-20 18:19 36.612861 -121.299798 134 38326ft 438kts
25-May-20 18:20 36.528070 -121.188414 134 38958ft 454kts
25-May-20 18:22 36.424827 -121.052995 132 38953ft 454kts
25-May-20 18:22 36.355120 -120.953193 131 38956ft 455kts
25-May-20 18:23 36.272811 -120.834937 131 38931ft 454kts
25-May-20 18:25 36.175587 -120.695901 131 38929ft 454kts
25-May-20 18:25 36.106227 -120.597088 131 38923ft 455kts
25-May-20 18:26 36.022936 -120.478866 131 38930ft 455kts
25-May-20 18:27 35.938033 -120.358745 131 38928ft 455kts
25-May-20 18:28 35.849138 -120.245252 145 38931ft 453kts
25-May-20 18:29 35.740869 -120.163546 149 38925ft 456kts
25-May-20 18:30 35.633319 -120.082744 149 38190ft 440kts
25-May-20 18:31 35.529676 -120.004621 149 36581ft 425kts
25-May-20 18:32 35.427142 -119.927595 149 34974ft 429kts
25-May-20 18:33 35.324737 -119.850886 149 33254ft 431kts
25-May-20 18:34 35.225680 -119.766280 142 31458ft 434kts
25-May-20 18:35 35.128223 -119.675014 142 29645ft 438kts
25-May-20 18:36 35.030176 -119.583606 142 27841ft 442kts
25-May-20 18:37 34.932466 -119.492841 142 26040ft 436kts
25-May-20 18:38 34.836932 -119.406437 143 24231ft 419kts
25-May-20 18:39 34.745705 -119.324910 144 22544ft 402kts
25-May-20 18:40 34.655423 -119.245907 143 20926ft 392kts
25-May-20 18:41 34.566674 -119.169233 143 19306ft 384kts
25-May-20 18:42 34.481099 -119.093821 142 17697ft 374kts
25-May-20 18:43 34.398283 -119.021235 143 16186ft 363kts
25-May-20 18:44 34.318189 -118.951317 141 14692ft 349kts
25-May-20 18:45 34.245047 -118.884929 140 13191ft 315kts
25-May-20 18:46 34.176644 -118.822051 140 11947ft 308kts
25-May-20 18:47 34.114736 -118.757843 134 10762ft 290kts
25-May-20 18:48 34.056610 -118.694184 135 9587ft 282kts
25-May-20 18:49 34.023851 -118.616794 94 8645ft 271kts
25-May-20 18:50 34.016463 -118.532267 93 7622ft 239kts
25-May-20 18:51 34.009528 -118.456193 90 6680ft 232kts
25-May-20 18:52 34.023038 -118.381700 74 5696ft 229kts
25-May-20 18:53 34.032057 -118.311824 82 4780ft 226kts
25-May-20 18:54 34.038006 -118.243170 81 3843ft 213kts
25-May-20 18:55 34.014630 -118.193718 169 3000ft 187kts
25-May-20 18:56 33.966586 -118.184659 171 2991ft 174kts
25-May-20 18:57 33.932300 -118.159620 96 3006ft 171kts
25-May-20 18:58 33.952286 -118.125185 329 3002ft 161kts
25-May-20 18:59 33.960370 -118.177200 271 2894ft 167kts
25-May-20 19:00 33.961637 -118.232896 273 2489ft 164kts
25-May-20 19:01 33.961796 -118.287587 268 2025ft 165kts
25-May-20 19:02 33.957812 -118.341379 263 1183ft 151kts
25-May-20 19:03 33.953177 -118.390547 266 338ft 139kts
25-May-20 19:04 33.950455 -118.418470 263 119ft 43kts
25-May-20 19:05 33.948449 -118.426854 225 112ft 6kts
25-May-20 19:06 33.946616 -118.427668 152 109ft 7kts
25-May-20 19:07 33.946770 -118.422988 82 116ft 18kts
25-May-20 19:08 33.947420 -118.416637 83 119ft 19kts
25-May-20 19:09 33.948153 -118.410706 82 122ft 17kts
25-May-20 19:10 33.948789 -118.404534 83 119ft 17kts
25-May-20 19:11 33.947412 -118.402964 234 118ft 3kts
25-May-20 19:12 33.947062 -118.403464 231 119ft 0kts

Navigation Log

Ident Type
Flight plan parsing failed, navigation log unavailable